Blackford, Kentucky
Current Conditions -  °F | °C
As of 3:35 PM on Thursday 27 Nov 2014 (Local Time) from K5M9 Reporting Station
Overcast Overcast  
Wind Chill: 27°   Ceiling: 2900
Heat Index: 31°   Visibility: 10mi
Dew Point: 23°   Wind: 5mph
Humidity: 70%   Direction: 310°NW
Pressure: 30.45"   Gusts: NA
Location:  37.45°N, 87.94°W
Report Text: K5M9 272135Z AUTO 31004KT 10SM BKN029 OVC037 00/M05 A3045 RMK AO2 T10031051
Loading
Personal Weather Stations






























Interactive Weather Map New forecast layout! Learn more

10-Day Weather Forecast

Advertisements
Track Severe Weather on mobile